Time;durP1;ratioP1;P1;durP2;ratioP2;P2;SDS_P1;SDS_P2;PMS_P1;PMS_P2;Temp;Humidity;BMP_temperature;BMP_pressure;BME280_temperature;BME280_humidity;BME280_pressure;Samples;Min_cycle;Max_cycle;Signal;HPM_P1;HPM_P2
2023/04/08 08:33:56;;;;;;;;;;;;;;;;;;5108521;27;7528;-76
2023/04/08 08:36:21;;;;;;;;;;;;;;;;;;5108628;28;7532;-73
2023/04/08 08:38:47;;;;;;;;;;;;;;;;;;5109970;28;7524;-74
2023/04/08 08:41:12;;;;;;;;;;;;;;;;;;5109885;28;7531;-74
2023/04/08 08:43:37;;;;;;;;;;;;;;;;;;5106982;28;8058;-74
2023/04/08 08:46:02;;;;;;;;;;;;;;;;;;5109841;28;7542;-73
2023/04/08 08:48:27;;;;;;;;;;;;;;;;;;5109484;28;7535;-71
2023/04/08 08:50:52;;;;;;;;;;;;;;;;;;5109967;28;7532;-72
2023/04/08 08:53:19;;;;;;;;;;;;;;;;;;5107959;28;7524;-73
2023/04/08 08:55:44;;;;;;;;;;;;;;;;;;5106286;28;8023;-72
2023/04/08 08:58:09;;;;;;;;;;;;;;;;;;5108363;28;7542;-72
2023/04/08 09:00:35;;;;;;;;;;;;;;;;;;5108387;28;7550;-71
2023/04/08 09:03:00;;;;;;;;;;;;;;;;;;5106846;28;7565;-70
2023/04/08 09:05:25;;;;;;;;;;;;;;;;;;5108279;28;7516;-74
2023/04/08 09:07:50;;;;;;;;;;;;;;;;;;5108345;28;7539;-70
2023/04/08 09:10:15;;;;;;;;;;;;;;;;;;5109061;28;7606;-69
2023/04/08 09:12:40;;;;;;;;;;;;;;;;;;5107361;28;7552;-72
2023/04/08 09:15:06;;;;;;;;;;;;;;;;;;5109048;28;7543;-72
2023/04/08 09:17:32;;;;;;;;;;;;;;;;;;5108862;28;7523;-70
2023/04/08 09:19:57;;;;;;;;;;;;;;;;;;5109453;28;7524;-70
2023/04/08 09:22:22;;;;;;;;;;;;;;;;;;5108127;28;7547;-72
2023/04/08 09:24:47;;;;;;;;;;;;;;;;;;5108489;28;7520;-73
2023/04/08 09:27:12;;;;;;;;;;;;;;;;;;5107756;28;7513;-71
2023/04/08 09:29:38;;;;;;;;;;;;;;;;;;5109088;28;7559;-71
2023/04/08 09:32:03;;;;;;;;;;;;;;;;;;5108967;28;7536;-70
2023/04/08 09:34:28;;;;;;;;;;;;;;;;;;5109306;28;7524;-68
2023/04/08 09:36:53;;;;;;;;;;;;;;;;;;5109073;28;7520;-69
2023/04/08 09:39:18;;;;;;;;;;;;;;;;;;5108891;28;7532;-68
2023/04/08 09:41:43;;;;;;;;;;;;;;;;;;5108805;28;7520;-72
2023/04/08 09:44:09;;;;;;;;;;;;;;;;;;5101238;28;7532;-71
2023/04/08 09:46:34;;;;;;;;;;;;;;;;;;5095283;28;7607;-71
2023/04/08 09:48:59;;;;;;;;;;;;;;;;;;5094981;28;7532;-72
2023/04/08 09:51:24;;;;;;;;;;;;;;;;;;5093954;28;7513;-74
2023/04/08 09:53:49;;;;;;;;;;;;;;;;;;5095575;28;7539;-71
2023/04/08 09:56:15;;;;;;;;;;;;;;;;;;5093724;28;7517;-73
2023/04/08 09:58:40;;;;;;;;;;;;;;;;;;5095568;28;7528;-71
2023/04/08 10:01:05;;;;;;;;;;;;;;;;;;5094967;28;7540;-71
2023/04/08 10:03:30;;;;;;;;;;;;;;;;;;5094629;28;7611;-71
2023/04/08 10:05:56;;;;;;;;;;;;;;;;;;5093467;28;7593;-71
2023/04/08 10:08:21;;;;;;;;;;;;;;;;;;5094851;28;7524;-71
2023/04/08 10:10:46;;;;;;;;;;;;;;;;;;5094752;28;7543;-72
2023/04/08 10:13:11;;;;;;;;;;;;;;;;;;5094806;28;7555;-71
2023/04/08 10:15:38;;;;;;;;;;;;;;;;;;5094899;28;7559;-71
2023/04/08 10:18:03;;;;;;;;;;;;;;;;;;5094656;28;7596;-71
2023/04/08 10:20:28;;;;;;;;;;;;;;;;;;5094538;28;7536;-71
2023/04/08 10:22:53;;;;;;;;;;;;;;;;;;5094190;28;7519;-71
2023/04/08 10:25:18;;;;;;;;;;;;;;;;;;5094499;28;7686;-72
2023/04/08 10:27:43;;;;;;;;;;;;;;;;;;5094803;28;7565;-72
2023/04/08 10:30:09;;;;;;;;;;;;;;;;;;5093121;28;7520;-71
2023/04/08 10:32:34;;;;;;;;;;;;;;;;;;5094051;28;7984;-72
2023/04/08 10:34:59;;;;;;;;;;;;;;;;;;5093075;28;7520;-71
2023/04/08 10:37:24;;;;;;;;;;;;;;;;;;5094438;28;7542;-71
2023/04/08 10:39:51;;;;;;;;;;;;;;;;;;5092510;28;7531;-71
2023/04/08 10:42:16;;;;;;;;;;;;;;;;;;5094321;28;7532;-71
2023/04/08 10:44:42;;;;;;;;;;;;;;;;;;5094161;28;7538;-71
2023/04/08 10:47:07;;;;;;;;;;;;;;;;;;5094078;28;7990;-71
2023/04/08 10:49:32;;;;;;;;;;;;;;;;;;5093915;28;7532;-71
2023/04/08 10:51:57;;;;;;;;;;;;;;;;;;5092691;28;7532;-71
2023/04/08 10:54:22;;;;;;;;;;;;;;;;;;5094491;28;8004;-70
2023/04/08 10:56:48;;;;;;;;;;;;;;;;;;5091626;28;7517;-71
2023/04/08 10:59:15;;;;;;;;;;;;;;;;;;5093668;28;7524;-72
2023/04/08 11:01:41;;;;;;;;;;;;;;;;;;5093740;28;7619;-71
2023/04/08 11:04:06;;;;;;;;;;;;;;;;;;5092494;28;7544;-72
2023/04/08 11:06:31;;;;;;;;;;;;;;;;;;5093908;28;7520;-71
2023/04/08 11:08:59;;;;;;;;;;;;;;;;;;5093873;28;7540;-72
2023/04/08 11:11:28;;;;;;;;;;;;;;;;;;5092525;28;7980;-71
2023/04/08 11:13:53;;;;;;;;;;;;;;;;;;5093625;28;7540;-71
2023/04/08 11:16:18;;;;;;;;;;;;;;;;;;5093616;28;7524;-71
2023/04/08 11:18:44;;;;;;;;;;;;;;;;;;5093205;28;7532;-71
2023/04/08 11:21:09;;;;;;;;;;;;;;;;;;5093166;28;7520;-72
2023/04/08 11:23:35;;;;;;;;;;;;;;;;;;5093428;28;7975;-72
2023/04/08 11:26:00;;;;;;;;;;;;;;;;;;5093479;28;7540;-71
2023/04/08 11:28:25;;;;;;;;;;;;;;;;;;5093334;28;7528;-71
2023/04/08 11:30:50;;;;;;;;;;;;;;;;;;5093321;28;7554;-71
2023/04/08 11:33:15;;;;;;;;;;;;;;;;;;5092938;28;7544;-73
2023/04/08 11:35:40;;;;;;;;;;;;;;;;;;5093159;28;7520;-71
2023/04/08 11:38:05;;;;;;;;;;;;;;;;;;5093254;28;7588;-71
2023/04/08 11:40:31;;;;;;;;;;;;;;;;;;5092525;28;7623;-71
2023/04/08 11:42:56;;;;;;;;;;;;;;;;;;5093187;28;7577;-72
2023/04/08 11:45:21;;;;;;;;;;;;;;;;;;5093066;28;7524;-72
2023/04/08 11:47:47;;;;;;;;;;;;;;;;;;5092838;28;7520;-72
2023/04/08 11:50:12;;;;;;;;;;;;;;;;;;5092883;28;7551;-72
2023/04/08 11:52:37;;;;;;;;;;;;;;;;;;5092795;28;7586;-71
2023/04/08 11:55:02;;;;;;;;;;;;;;;;;;5093200;28;7530;-72
2023/04/08 11:57:28;;;;;;;;;;;;;;;;;;5091454;28;7547;-71
2023/04/08 11:59:53;;;;;;;;;;;;;;;;;;5092660;28;7585;-71
2023/04/08 12:02:18;;;;;;;;;;;;;;;;;;5092791;28;7615;-73
2023/04/08 12:04:43;;;;;;;;;;;;;;;;;;5092802;28;7615;-71
2023/04/08 12:07:09;;;;;;;;;;;;;;;;;;5092521;28;7532;-71
2023/04/08 12:09:34;;;;;;;;;;;;;;;;;;5092655;28;7991;-72
2023/04/08 12:12:00;;;;;;;;;;;;;;;;;;5092570;28;7539;-72
2023/04/08 12:14:26;;;;;;;;;;;;;;;;;;5092365;28;7532;-72
2023/04/08 12:16:51;;;;;;;;;;;;;;;;;;5092436;28;7524;-72
2023/04/08 12:19:16;;;;;;;;;;;;;;;;;;5091069;28;7508;-72
2023/04/08 12:21:41;;;;;;;;;;;;;;;;;;5092578;28;7517;-72
2023/04/08 12:24:06;;;;;;;;;;;;;;;;;;5092530;28;7590;-72
2023/04/08 12:26:32;;;;;;;;;;;;;;;;;;5092430;28;7547;-72
2023/04/08 12:28:57;;;;;;;;;;;;;;;;;;5091083;28;7589;-72
2023/04/08 12:31:22;;;;;;;;;;;;;;;;;;5092370;28;7516;-72
2023/04/08 12:33:47;;;;;;;;;;;;;;;;;;5091725;28;7524;-72
2023/04/08 12:36:12;;;;;;;;;;;;;;;;;;5092474;28;7586;-72
2023/04/08 12:38:37;;;;;;;;;;;;;;;;;;5090942;28;7532;-72
2023/04/08 12:41:03;;;;;;;;;;;;;;;;;;5092504;28;7987;-72
2023/04/08 12:43:28;;;;;;;;;;;;;;;;;;5090982;28;7524;-72
2023/04/08 12:45:53;;;;;;;;;;;;;;;;;;5092313;28;7525;-72
2023/04/08 12:48:18;;;;;;;;;;;;;;;;;;5090815;28;7524;-72
2023/04/08 12:50:43;;;;;;;;;;;;;;;;;;5092133;28;7528;-72
2023/04/08 12:53:08;;;;;;;;;;;;;;;;;;5090275;28;7535;-71
2023/04/08 12:55:34;;;;;;;;;;;;;;;;;;5092651;28;7611;-70
2023/04/08 12:57:59;;;;;;;;;;;;;;;;;;5092202;28;7520;-71
2023/04/08 13:00:25;;;;;;;;;;;;;;;;;;5092096;28;7995;-70
2023/04/08 13:02:50;;;;;;;;;;;;;;;;;;5092163;28;7508;-67
2023/04/08 13:05:16;;;;;;;;;;;;;;;;;;5092181;28;7555;-66
2023/04/08 13:07:41;;;;;;;;;;;;;;;;;;5092168;28;7528;-67
2023/04/08 13:10:06;;;;;;;;;;;;;;;;;;5091970;28;7567;-66
2023/04/08 13:12:32;;;;;;;;;;;;;;;;;;5091667;28;7929;-66
2023/04/08 13:14:57;;;;;;;;;;;;;;;;;;5092132;28;7627;-67
2023/04/08 13:17:22;;;;;;;;;;;;;;;;;;5095816;28;7524;-70
2023/04/08 13:19:48;;;;;;;;;;;;;;;;;;5092868;28;7580;-67
2023/04/08 13:22:14;;;;;;;;;;;;;;;;;;5094500;28;7539;-66
2023/04/08 13:24:39;;;;;;;;;;;;;;;;;;5094273;28;7536;-66
2023/04/08 13:27:04;;;;;;;;;;;;;;;;;;5095210;28;7528;-69
2023/04/08 13:29:29;;;;;;;;;;;;;;;;;;5095303;28;7530;-70
2023/04/08 13:31:54;;;;;;;;;;;;;;;;;;5095407;28;7521;-65
2023/04/08 13:34:20;;;;;;;;;;;;;;;;;;5095360;28;7517;-66
2023/04/08 13:36:45;;;;;;;;;;;;;;;;;;5110507;28;7573;-66
2023/04/08 13:39:10;;;;;;;;;;;;;;;;;;5094080;28;7972;-67
2023/04/08 13:41:35;;;;;;;;;;;;;;;;;;5094263;28;7542;-68
2023/04/08 13:44:00;;;;;;;;;;;;;;;;;;5093999;28;7528;-67
2023/04/08 13:46:25;;;;;;;;;;;;;;;;;;5092396;28;7524;-66
2023/04/08 13:48:50;;;;;;;;;;;;;;;;;;5093727;28;7516;-67
2023/04/08 13:51:15;;;;;;;;;;;;;;;;;;5094053;28;7516;-66
2023/04/08 13:53:40;;;;;;;;;;;;;;;;;;5092350;28;7532;-67
2023/04/08 13:56:06;;;;;;;;;;;;;;;;;;5098961;28;7532;-66
2023/04/08 13:58:31;;;;;;;;;;;;;;;;;;5103982;28;8009;-67
2023/04/08 14:00:56;;;;;;;;;;;;;;;;;;5105854;28;7981;-66
2023/04/08 14:03:21;;;;;;;;;;;;;;;;;;5103799;28;7520;-67
2023/04/08 14:05:46;;;;;;;;;;;;;;;;;;5104749;28;7532;-67
2023/04/08 14:08:12;;;;;;;;;;;;;;;;;;5105694;28;7622;-66
2023/04/08 14:10:37;;;;;;;;;;;;;;;;;;5103546;28;8006;-66
2023/04/08 14:13:02;;;;;;;;;;;;;;;;;;5102354;28;7528;-66
2023/04/08 14:15:27;;;;;;;;;;;;;;;;;;5094873;28;7523;-66
2023/04/08 14:17:52;;;;;;;;;;;;;;;;;;5093464;28;7574;-65
2023/04/08 14:20:18;;;;;;;;;;;;;;;;;;5094804;28;7532;-66
2023/04/08 14:22:43;;;;;;;;;;;;;;;;;;5094329;28;7536;-66
2023/04/08 14:25:08;;;;;;;;;;;;;;;;;;5093398;28;7524;-66
2023/04/08 14:27:33;;;;;;;;;;;;;;;;;;5094674;28;7524;-67
2023/04/08 14:29:58;;;;;;;;;;;;;;;;;;5094498;28;7516;-67
2023/04/08 14:32:23;;;;;;;;;;;;;;;;;;5094333;28;7555;-67
2023/04/08 14:34:48;;;;;;;;;;;;;;;;;;5094428;28;7524;-67
2023/04/08 14:37:14;;;;;;;;;;;;;;;;;;5094406;28;7623;-68
2023/04/08 14:39:39;;;;;;;;;;;;;;;;;;5094038;28;7535;-67
2023/04/08 14:42:04;;;;;;;;;;;;;;;;;;5102386;28;7669;-67
2023/04/08 14:44:29;;;;;;;;;;;;;;;;;;5104998;28;7516;-67
2023/04/08 14:46:54;;;;;;;;;;;;;;;;;;5102679;28;7520;-68
2023/04/08 14:49:19;;;;;;;;;;;;;;;;;;5103808;28;7512;-68
2023/04/08 14:51:44;;;;;;;;;;;;;;;;;;5101902;28;7520;-67
2023/04/08 14:54:12;;;;;;;;;;;;;;;;;;5104418;28;8049;-67
2023/04/08 14:56:37;;;;;;;;;;;;;;;;;;5103299;28;7512;-67
2023/04/08 14:59:02;;;;;;;;;;;;;;;;;;5101858;28;7577;-67
2023/04/08 15:01:30;;;;;;;;;;;;;;;;;;5104788;28;7617;-67
2023/04/08 15:03:55;;;;;;;;;;;;;;;;;;5101517;28;7547;-66
2023/04/08 15:06:20;;;;;;;;;;;;;;;;;;5103643;28;7523;-66
2023/04/08 15:08:45;;;;;;;;;;;;;;;;;;5104193;28;7544;-67
2023/04/08 15:11:10;;;;;;;;;;;;;;;;;;5102321;28;7524;-67
2023/04/08 15:13:36;;;;;;;;;;;;;;;;;;5103802;28;7548;-67
2023/04/08 15:16:01;;;;;;;;;;;;;;;;;;5103498;28;7531;-67
2023/04/08 15:18:26;;;;;;;;;;;;;;;;;;5102399;28;7535;-67
2023/04/08 15:20:51;;;;;;;;;;;;;;;;;;5104774;28;7573;-67
2023/04/08 15:23:16;;;;;;;;;;;;;;;;;;5102663;28;7532;-67
2023/04/08 15:25:41;;;;;;;;;;;;;;;;;;5103143;28;7531;-67
2023/04/08 15:28:07;;;;;;;;;;;;;;;;;;5103513;28;7548;-67
2023/04/08 15:30:34;;;;;;;;;;;;;;;;;;5098674;28;7528;-67
2023/04/08 15:33:00;;;;;;;;;;;;;;;;;;5092801;28;7618;-68
2023/04/08 15:35:26;;;;;;;;;;;;;;;;;;5105535;28;7642;-67
2023/04/08 15:37:51;;;;;;;;;;;;;;;;;;5089746;28;7546;-67
2023/04/08 15:40:16;;;;;;;;;;;;;;;;;;5092909;28;7520;-71
2023/04/08 15:42:41;;;;;;;;;;;;;;;;;;5092876;28;7536;-72
2023/04/08 15:45:06;;;;;;;;;;;;;;;;;;5092421;28;7597;-73
2023/04/08 15:47:34;;;;;;;;;;;;;;;;;;5107787;28;7516;-72
2023/04/08 15:49:59;;;;;;;;;;;;;;;;;;5092823;28;7524;-71
2023/04/08 15:52:24;;;;;;;;;;;;;;;;;;5092916;28;7532;-69
2023/04/08 15:54:50;;;;;;;;;;;;;;;;;;5091595;28;7512;-69
2023/04/08 15:57:15;;;;;;;;;;;;;;;;;;5091494;28;7516;-71
2023/04/08 15:59:40;;;;;;;;;;;;;;;;;;5091245;28;7520;-71
2023/04/08 16:02:05;;;;;;;;;;;;;;;;;;5092399;28;7540;-72
2023/04/08 16:04:31;;;;;;;;;;;;;;;;;;5092629;28;7524;-77
2023/04/08 16:06:56;;;;;;;;;;;;;;;;;;5107577;28;7536;-75
2023/04/08 16:09:25;;;;;;;;;;;;;;;;;;5112648;28;7542;-76
2023/04/08 16:11:51;;;;;;;;;;;;;;;;;;5106766;28;7521;-74
2023/04/08 16:14:16;;;;;;;;;;;;;;;;;;5102273;28;7540;-75
2023/04/08 16:16:41;;;;;;;;;;;;;;;;;;5102264;28;7532;-75
2023/04/08 16:19:07;;;;;;;;;;;;;;;;;;5101172;28;7524;-74
2023/04/08 16:21:32;;;;;;;;;;;;;;;;;;5094365;28;7531;-74
2023/04/08 16:23:57;;;;;;;;;;;;;;;;;;5092426;28;7520;-72
2023/04/08 16:26:23;;;;;;;;;;;;;;;;;;5101664;28;7524;-75
2023/04/08 16:28:48;;;;;;;;;;;;;;;;;;5111173;28;7534;-74
2023/04/08 16:31:13;;;;;;;;;;;;;;;;;;5110786;28;7516;-77
2023/04/08 16:33:38;;;;;;;;;;;;;;;;;;5112651;28;7535;-76
2023/04/08 16:36:03;;;;;;;;;;;;;;;;;;5101243;28;7983;-77
2023/04/08 16:38:28;;;;;;;;;;;;;;;;;;5092229;28;7536;-78
2023/04/08 16:40:53;;;;;;;;;;;;;;;;;;5092414;28;7983;-76
2023/04/08 16:43:19;;;;;;;;;;;;;;;;;;5097473;28;7532;-76
2023/04/08 16:45:45;;;;;;;;;;;;;;;;;;5097607;28;7517;-77
2023/04/08 16:48:11;;;;;;;;;;;;;;;;;;5102349;28;7524;-76
2023/04/08 16:50:36;;;;;;;;;;;;;;;;;;5102294;28;7532;-76
2023/04/08 16:53:01;;;;;;;;;;;;;;;;;;5100926;28;7532;-78
2023/04/08 16:55:26;;;;;;;;;;;;;;;;;;5099005;28;7536;-77
2023/04/08 16:57:52;;;;;;;;;;;;;;;;;;5106486;28;7520;-78
2023/04/08 17:00:17;;;;;;;;;;;;;;;;;;5106503;28;7523;-79
2023/04/08 17:02:42;;;;;;;;;;;;;;;;;;5104939;28;7600;-76
2023/04/08 17:05:07;;;;;;;;;;;;;;;;;;5102828;28;7683;-80
2023/04/08 17:07:32;;;;;;;;;;;;;;;;;;5103927;28;7560;-79
2023/04/08 17:09:58;;;;;;;;;;;;;;;;;;5106384;28;7524;-78
2023/04/08 17:12:23;;;;;;;;;;;;;;;;;;5103290;28;7532;-78
2023/04/08 17:14:48;;;;;;;;;;;;;;;;;;5106685;28;7523;-77
2023/04/08 17:17:13;;;;;;;;;;;;;;;;;;5103079;28;8179;-78
2023/04/08 17:19:38;;;;;;;;;;;;;;;;;;5104997;28;7531;-78
2023/04/08 17:22:03;;;;;;;;;;;;;;;;;;5106526;28;8043;-79
2023/04/08 17:24:28;;;;;;;;;;;;;;;;;;5103328;28;7573;-77
2023/04/08 17:26:56;;;;;;;;;;;;;;;;;;5101534;28;7524;-77
2023/04/08 17:29:21;;;;;;;;;;;;;;;;;;5098166;28;7524;-78
2023/04/08 17:31:46;;;;;;;;;;;;;;;;;;5095464;28;7548;-75
2023/04/08 17:34:11;;;;;;;;;;;;;;;;;;5100895;28;7531;-78
2023/04/08 17:36:36;;;;;;;;;;;;;;;;;;5103140;28;7552;-78
2023/04/08 17:39:01;;;;;;;;;;;;;;;;;;5093844;28;7598;-78
2023/04/08 17:41:27;;;;;;;;;;;;;;;;;;5094300;28;7580;-78
2023/04/08 17:43:52;;;;;;;;;;;;;;;;;;5094099;28;7524;-77
2023/04/08 17:46:17;;;;;;;;;;;;;;;;;;5094218;28;7558;-77
2023/04/08 17:48:42;;;;;;;;;;;;;;;;;;5093898;28;7535;-78
2023/04/08 17:51:08;;;;;;;;;;;;;;;;;;5094120;28;7544;-78
2023/04/08 17:53:33;;;;;;;;;;;;;;;;;;5092759;28;7520;-77
2023/04/08 17:55:58;;;;;;;;;;;;;;;;;;5098803;28;7528;-77
2023/04/08 17:58:23;;;;;;;;;;;;;;;;;;5113965;27;7539;-76
2023/04/08 18:00:48;;;;;;;;;;;;;;;;;;5115317;28;8091;-72
2023/04/08 18:03:13;;;;;;;;;;;;;;;;;;5116431;28;7535;-74
2023/04/08 18:05:38;;;;;;;;;;;;;;;;;;5117024;28;7534;-74
2023/04/08 18:08:03;;;;;;;;;;;;;;;;;;5116541;28;7527;-73
2023/04/08 18:10:29;;;;;;;;;;;;;;;;;;5115365;28;7527;-75
2023/04/08 18:12:54;;;;;;;;;;;;;;;;;;5114804;27;7524;-71
2023/04/08 18:15:19;;;;;;;;;;;;;;;;;;5115235;28;7534;-74
2023/04/08 18:17:44;;;;;;;;;;;;;;;;;;5106448;28;7516;-79
2023/04/08 18:20:09;;;;;;;;;;;;;;;;;;5093141;28;7513;-75
2023/04/08 18:22:35;;;;;;;;;;;;;;;;;;5072962;28;7536;-75
2023/04/08 18:25:00;;;;;;;;;;;;;;;;;;5074400;28;7547;-72
2023/04/08 18:27:25;;;;;;;;;;;;;;;;;;5074156;28;7523;-72
2023/04/08 18:29:52;;;;;;;;;;;;;;;;;;5072510;28;7517;-73
2023/04/08 18:32:17;;;;;;;;;;;;;;;;;;5074133;28;7548;-71
2023/04/08 18:34:42;;;;;;;;;;;;;;;;;;5074075;28;7529;-70
2023/04/08 18:37:09;;;;;;;;;;;;;;;;;;5073775;28;8046;-75
2023/04/08 18:39:34;;;;;;;;;;;;;;;;;;5073966;28;7528;-75
2023/04/08 18:42:00;;;;;;;;;;;;;;;;;;5073930;28;7586;-74
2023/04/08 18:44:25;;;;;;;;;;;;;;;;;;5073916;28;7535;-73
2023/04/08 18:46:50;;;;;;;;;;;;;;;;;;5073770;28;7524;-76
2023/04/08 18:49:15;;;;;;;;;;;;;;;;;;5093483;28;7532;-76
2023/04/08 18:51:40;;;;;;;;;;;;;;;;;;5092168;28;7520;-75
2023/04/08 18:54:05;;;;;;;;;;;;;;;;;;5092630;28;7532;-77
2023/04/08 18:56:33;;;;;;;;;;;;;;;;;;5093935;28;7521;-78
2023/04/08 18:58:58;;;;;;;;;;;;;;;;;;5092518;28;7536;-72
2023/04/08 19:01:23;;;;;;;;;;;;;;;;;;5093891;28;7517;-80
2023/04/08 19:03:48;;;;;;;;;;;;;;;;;;5092849;28;7532;-79
2023/04/08 19:06:16;;;;;;;;;;;;;;;;;;5092528;28;7559;-78
2023/04/08 19:08:41;;;;;;;;;;;;;;;;;;5092385;28;7520;-81
2023/04/08 19:11:06;;;;;;;;;;;;;;;;;;5093015;28;7520;-80
2023/04/08 19:13:31;;;;;;;;;;;;;;;;;;5092760;28;7524;-82
2023/04/08 19:15:56;;;;;;;;;;;;;;;;;;5092485;28;7571;-80
2023/04/08 19:18:21;;;;;;;;;;;;;;;;;;5092251;28;7516;-82
2023/04/08 19:20:47;;;;;;;;;;;;;;;;;;5091456;28;7544;-82
2023/04/08 19:23:12;;;;;;;;;;;;;;;;;;5092681;28;7516;-83
2023/04/08 19:25:37;;;;;;;;;;;;;;;;;;5092898;28;7544;-82
2023/04/08 19:28:04;;;;;;;;;;;;;;;;;;5092742;28;7553;-84
2023/04/08 19:30:29;;;;;;;;;;;;;;;;;;5091780;28;7540;-89
2023/04/08 19:32:54;;;;;;;;;;;;;;;;;;5091267;28;7540;-78
2023/04/08 19:35:19;;;;;;;;;;;;;;;;;;5091966;28;7555;-79
2023/04/08 19:37:45;;;;;;;;;;;;;;;;;;5090954;28;7524;-76
2023/04/08 19:40:10;;;;;;;;;;;;;;;;;;5088810;28;7654;-85
2023/04/08 19:42:35;;;;;;;;;;;;;;;;;;5092468;28;7532;-78
2023/04/08 19:45:00;;;;;;;;;;;;;;;;;;5092635;28;7512;-79
2023/04/08 19:47:25;;;;;;;;;;;;;;;;;;5091291;28;7513;-79
2023/04/08 19:49:50;;;;;;;;;;;;;;;;;;5090817;28;8105;-76
2023/04/08 19:52:16;;;;;;;;;;;;;;;;;;5090366;28;7621;-76
2023/04/08 19:54:42;;;;;;;;;;;;;;;;;;5090343;28;7539;-77
2023/04/08 19:57:09;;;;;;;;;;;;;;;;;;5089609;28;7609;-76
2023/04/08 19:59:34;;;;;;;;;;;;;;;;;;5090714;28;7532;-76
2023/04/08 20:01:59;;;;;;;;;;;;;;;;;;5092102;28;7536;-74
2023/04/08 20:04:25;;;;;;;;;;;;;;;;;;5091947;28;7520;-72
2023/04/08 20:06:50;;;;;;;;;;;;;;;;;;5092183;28;7552;-78
2023/04/08 20:09:15;;;;;;;;;;;;;;;;;;5090515;28;7536;-75
2023/04/08 20:11:41;;;;;;;;;;;;;;;;;;5091977;28;7540;-75
2023/04/08 20:14:06;;;;;;;;;;;;;;;;;;5094440;28;7554;-75
2023/04/08 20:16:31;;;;;;;;;;;;;;;;;;5092131;28;7547;-74
2023/04/08 20:18:56;;;;;;;;;;;;;;;;;;5091186;28;7528;-74
2023/04/08 20:21:21;;;;;;;;;;;;;;;;;;5091970;28;7524;-74
2023/04/08 20:23:46;;;;;;;;;;;;;;;;;;5090430;28;7524;-73
2023/04/08 20:26:12;;;;;;;;;;;;;;;;;;5091820;28;7615;-77
2023/04/08 20:28:37;;;;;;;;;;;;;;;;;;5089452;28;7528;-74
2023/04/08 20:31:03;;;;;;;;;;;;;;;;;;5090824;28;7516;-74
2023/04/08 20:33:28;;;;;;;;;;;;;;;;;;5092058;28;7536;-74
2023/04/08 20:35:53;;;;;;;;;;;;;;;;;;5092323;28;7532;-73
2023/04/08 20:38:18;;;;;;;;;;;;;;;;;;5084363;28;7516;-73
2023/04/08 20:40:43;;;;;;;;;;;;;;;;;;5075488;28;7521;-74
2023/04/08 20:43:09;;;;;;;;;;;;;;;;;;5092195;28;7520;-72
2023/04/08 20:45:34;;;;;;;;;;;;;;;;;;5092091;28;7524;-74
2023/04/08 20:47:59;;;;;;;;;;;;;;;;;;5091863;28;7524;-74
2023/04/08 20:50:27;;;;;;;;;;;;;;;;;;5092087;28;7535;-73
2023/04/08 20:52:52;;;;;;;;;;;;;;;;;;5092302;28;7521;-74
2023/04/08 20:55:17;;;;;;;;;;;;;;;;;;5092339;28;7528;-74
2023/04/08 20:57:43;;;;;;;;;;;;;;;;;;5092204;28;7520;-74
2023/04/08 21:00:08;;;;;;;;;;;;;;;;;;5092232;28;7547;-74
2023/04/08 21:02:33;;;;;;;;;;;;;;;;;;5091515;28;7554;-74
2023/04/08 21:04:58;;;;;;;;;;;;;;;;;;5088427;28;7607;-76
2023/04/08 21:07:24;;;;;;;;;;;;;;;;;;5088712;28;7523;-76
2023/04/08 21:09:49;;;;;;;;;;;;;;;;;;5088340;28;7528;-76
2023/04/08 21:12:14;;;;;;;;;;;;;;;;;;5089718;28;7630;-80
2023/04/08 21:14:40;;;;;;;;;;;;;;;;;;5089856;28;7540;-79
2023/04/08 21:17:07;;;;;;;;;;;;;;;;;;5089915;28;7536;-76
2023/04/08 21:19:32;;;;;;;;;;;;;;;;;;5090181;28;7523;-79
2023/04/08 21:21:57;;;;;;;;;;;;;;;;;;5092146;28;7602;-78
2023/04/08 21:24:22;;;;;;;;;;;;;;;;;;5091022;28;7512;-78
2023/04/08 21:26:47;;;;;;;;;;;;;;;;;;5092180;28;7528;-77
2023/04/08 21:29:12;;;;;;;;;;;;;;;;;;5091961;28;7528;-77
2023/04/08 21:31:39;;;;;;;;;;;;;;;;;;5091792;28;7543;-77
2023/04/08 21:34:04;;;;;;;;;;;;;;;;;;5091895;28;7532;-76
2023/04/08 21:36:30;;;;;;;;;;;;;;;;;;5091974;28;7524;-77
2023/04/08 21:38:55;;;;;;;;;;;;;;;;;;5090534;28;7597;-76
2023/04/08 21:41:21;;;;;;;;;;;;;;;;;;5094884;28;7990;-77
2023/04/08 21:43:47;;;;;;;;;;;;;;;;;;5095488;28;7540;-76
2023/04/08 21:46:12;;;;;;;;;;;;;;;;;;5095493;28;7524;-77
2023/04/08 21:48:37;;;;;;;;;;;;;;;;;;5095401;28;7524;-76
2023/04/08 21:51:04;;;;;;;;;;;;;;;;;;5094020;28;7520;-75
2023/04/08 21:53:29;;;;;;;;;;;;;;;;;;5095199;28;7524;-77
2023/04/08 21:55:54;;;;;;;;;;;;;;;;;;5095310;28;7527;-77
2023/04/08 21:58:19;;;;;;;;;;;;;;;;;;5095272;28;7513;-77
2023/04/08 22:00:44;;;;;;;;;;;;;;;;;;5095275;28;7512;-77
2023/04/08 22:03:10;;;;;;;;;;;;;;;;;;5095307;28;7520;-76
2023/04/08 22:05:35;;;;;;;;;;;;;;;;;;5095196;28;7618;-75
2023/04/08 22:08:01;;;;;;;;;;;;;;;;;;5093800;28;7517;-75
2023/04/08 22:10:26;;;;;;;;;;;;;;;;;;5095308;28;7593;-75
2023/04/08 22:12:51;;;;;;;;;;;;;;;;;;5095360;28;7536;-76
2023/04/08 22:15:16;;;;;;;;;;;;;;;;;;5094968;28;7923;-76
2023/04/08 22:17:41;;;;;;;;;;;;;;;;;;5094842;28;7539;-77
2023/04/08 22:20:07;;;;;;;;;;;;;;;;;;5093784;28;7543;-78
2023/04/08 22:22:32;;;;;;;;;;;;;;;;;;5094976;28;7520;-77
2023/04/08 22:24:57;;;;;;;;;;;;;;;;;;5094836;28;7593;-74
2023/04/08 22:27:22;;;;;;;;;;;;;;;;;;5094714;28;7528;-74
2023/04/08 22:29:47;;;;;;;;;;;;;;;;;;5094688;28;7531;-73
2023/04/08 22:32:12;;;;;;;;;;;;;;;;;;5094415;28;7670;-74
2023/04/08 22:34:37;;;;;;;;;;;;;;;;;;5094487;28;7528;-71
2023/04/08 22:37:02;;;;;;;;;;;;;;;;;;5094434;28;7528;-73
2023/04/08 22:39:28;;;;;;;;;;;;;;;;;;5094401;28;7524;-72
2023/04/08 22:41:53;;;;;;;;;;;;;;;;;;5094382;28;7520;-72
2023/04/08 22:44:18;;;;;;;;;;;;;;;;;;5094294;28;7520;-73
2023/04/08 22:46:43;;;;;;;;;;;;;;;;;;5094155;28;7619;-79
2023/04/08 22:49:08;;;;;;;;;;;;;;;;;;5094194;28;7524;-79
2023/04/08 22:51:33;;;;;;;;;;;;;;;;;;5094103;28;7528;-80
2023/04/08 22:53:59;;;;;;;;;;;;;;;;;;5094037;28;7534;-80
2023/04/08 22:56:26;;;;;;;;;;;;;;;;;;5094062;28;7513;-80
2023/04/08 22:58:52;;;;;;;;;;;;;;;;;;5094030;28;7520;-79
2023/04/08 23:01:19;;;;;;;;;;;;;;;;;;5094009;28;7540;-81
2023/04/08 23:03:44;;;;;;;;;;;;;;;;;;5093850;28;7528;-79
2023/04/08 23:06:10;;;;;;;;;;;;;;;;;;5092579;28;7516;-79
2023/04/08 23:08:35;;;;;;;;;;;;;;;;;;5092451;28;7535;-78
2023/04/08 23:11:00;;;;;;;;;;;;;;;;;;5093744;28;7972;-78
2023/04/08 23:13:25;;;;;;;;;;;;;;;;;;5092373;28;8035;-78
